Angler Guide Weather for Trenton -
Trenton, Ontario Current Weather Conditions
Enter your "Place, State", US Zip Code or ICAO:  
Forecast Information Radar Information
Trenton, Ontario, Canada  Lat: 44.10N, Lon: 77.52W
ICAO Used: CYPQ
Current Conditions
Updated:
Sun & Moon Information:
Temp: N/A
Humidity: N/A
Wind Speed: N/A
Barometer: N/A
Dewpoint: N/A
Heat Index: N/A
Wind Chill: N/A
Civil Twilight: 7:02 AM EDT
Moonrise: 10:08 AM EDT Moon Phase:
Waxing Crescent Moon
Waxing Crescent Moon
Moonset: 8:16 PM EDT
Sunrise: 7:32 AM EDT
Sunset: 6:15 PM EDT
Civil Twilight: 6:44 PM EDT
Forecast for Trenton, ON:
(Forecast based on TAF for )
0642 PM EDT MON NOV 06 2006
  
EVENINGOVERNIGHT
MOSTLY CLOUDYMOSTLY CLOUDY
Mostly
Cloudy
Mostly
Cloudy
TAF based forecast:
Dated: 0642 PM EDT MON NOV 06 2006
Evening...Mostly cloudy with winds from the south south east at 6 mph.
Overnight...Mostly cloudy with winds from the south south east at 6 mph.
Original Encoded TAF:
Dated: 0642 PM EDT MON NOV 06 2006
2006/11/06 22:42
CYPQ 062242Z 062303 20005KT P6SM BKN060=




Powered by Angler Guide.com
Copyright 2007, all rights reserved.